Time;durP1;ratioP1;P1;durP2;ratioP2;P2;SDS_P1;SDS_P2;PMS_P1;PMS_P2;Temp;Humidity;BMP_temperature;BMP_pressure;BME280_temperature;BME280_humidity;BME280_pressure;Samples;Min_cycle;Max_cycle;Signal;HPM_P1;HPM_P2
2022/08/30 00:01:27;;;;;;;1.00;0.70;;;14.20;99.90;;;;;;5025428;28;20064;-80
2022/08/30 00:03:57;;;;;;;0.60;0.60;;;14.10;99.90;;;;;;5024594;28;20088;-80
2022/08/30 00:06:24;;;;;;;0.95;0.77;;;14.00;99.90;;;;;;5022576;28;20293;-81
2022/08/30 00:08:50;;;;;;;0.85;0.70;;;14.00;99.90;;;;;;5027842;28;20033;-80
2022/08/30 00:11:20;;;;;;;0.57;0.50;;;14.00;99.90;;;;;;5025129;28;20460;-80
2022/08/30 00:13:48;;;;;;;0.73;0.70;;;13.90;99.90;;;;;;5026900;28;20511;-80
2022/08/30 00:16:14;;;;;;;0.90;0.80;;;13.80;99.90;;;;;;5023750;28;20030;-80
2022/08/30 00:18:41;;;;;;;0.93;0.80;;;13.80;99.90;;;;;;5024739;28;20025;-81
2022/08/30 00:21:08;;;;;;;0.98;0.85;;;13.70;99.90;;;;;;5025673;28;20083;-80
2022/08/30 00:23:34;;;;;;;0.70;0.70;;;13.70;99.90;;;;;;5026735;28;20033;-81
2022/08/30 00:26:01;;;;;;;0.73;0.60;;;13.70;99.90;;;;;;5025657;28;20021;-81
2022/08/30 00:28:26;;;;;;;0.52;0.52;;;13.70;99.90;;;;;;5026380;28;20097;-81
2022/08/30 00:30:52;;;;;;;0.85;0.75;;;13.80;99.90;;;;;;5025692;28;20053;-81
2022/08/30 00:33:18;;;;;;;0.80;0.77;;;13.80;99.90;;;;;;5023151;28;20949;-81
2022/08/30 00:35:43;;;;;;;0.77;0.70;;;13.80;99.90;;;;;;5029107;28;20494;-80
2022/08/30 00:38:11;;;;;;;1.30;1.00;;;13.80;99.90;;;;;;5025994;28;20133;-81
2022/08/30 00:40:37;;;;;;;0.52;0.52;;;13.90;99.90;;;;;;5025888;28;20025;-81
2022/08/30 00:43:08;;;;;;;0.88;0.68;;;13.90;99.90;;;;;;5023515;28;20040;-81
2022/08/30 00:45:36;;;;;;;0.60;0.60;;;13.90;99.90;;;;;;5029839;28;20059;-80
2022/08/30 00:48:02;;;;;;;0.85;0.60;;;13.90;99.90;;;;;;5033814;28;20120;-80
2022/08/30 00:50:34;;;;;;;0.60;0.60;;;13.80;99.90;;;;;;5024315;28;20079;-81
2022/08/30 00:53:03;;;;;;;0.70;0.70;;;13.80;99.90;;;;;;5023301;28;20037;-81
2022/08/30 00:55:29;;;;;;;0.90;0.75;;;13.60;99.90;;;;;;5025545;28;20049;-80
2022/08/30 00:58:00;;;;;;;0.98;0.88;;;13.60;99.90;;;;;;5023741;28;20037;-81
2022/08/30 01:00:26;;;;;;;0.75;0.75;;;13.50;99.90;;;;;;5022224;28;20112;-81
2022/08/30 01:02:52;;;;;;;0.93;0.70;;;13.50;99.90;;;;;;5025239;28;20464;-81
2022/08/30 01:05:18;;;;;;;0.75;0.75;;;13.60;99.90;;;;;;5027566;28;20022;-81
2022/08/30 01:07:43;;;;;;;0.65;0.65;;;13.60;99.90;;;;;;5024681;28;20384;-81
2022/08/30 01:10:12;;;;;;;1.38;0.93;;;13.70;99.90;;;;;;5024585;28;20465;-80
2022/08/30 01:12:39;;;;;;;0.60;0.60;;;13.70;99.90;;;;;;5023881;28;20543;-81
2022/08/30 01:15:06;;;;;;;1.13;0.80;;;13.60;99.90;;;;;;5026128;28;20508;-81
2022/08/30 01:17:33;;;;;;;1.40;1.02;;;13.60;99.90;;;;;;5024222;28;20037;-81
2022/08/30 01:20:03;;;;;;;1.02;0.80;;;13.50;99.90;;;;;;5026087;28;20025;-80
2022/08/30 01:23:00;;;;;;;0.88;0.88;;;13.40;99.90;;;;;;5025169;28;20117;-81
2022/08/30 01:25:29;;;;;;;1.05;0.95;;;13.40;99.90;;;;;;5023394;28;20036;-81
2022/08/30 01:28:00;;;;;;;0.90;0.70;;;13.30;99.90;;;;;;5022120;28;20504;-81
2022/08/30 01:30:26;;;;;;;1.15;0.60;;;13.30;99.90;;;;;;5023352;28;20156;-81
2022/08/30 01:32:58;;;;;;;3.45;0.60;;;13.20;99.90;;;;;;5025089;28;20546;-81
2022/08/30 01:35:23;;;;;;;1.38;0.93;;;13.20;99.90;;;;;;5026439;28;20033;-81
2022/08/30 01:37:49;;;;;;;0.98;0.80;;;13.20;99.90;;;;;;5027205;28;20558;-81
2022/08/30 01:40:15;;;;;;;0.68;0.68;;;13.20;99.90;;;;;;5029645;28;20026;-81
2022/08/30 01:42:41;;;;;;;0.57;0.57;;;13.20;99.90;;;;;;5028617;28;20049;-80
2022/08/30 01:45:08;;;;;;;0.85;0.75;;;13.20;99.90;;;;;;5024863;28;20078;-81
2022/08/30 01:47:33;;;;;;;0.98;0.90;;;13.20;99.90;;;;;;5029024;28;20514;-81
2022/08/30 01:49:59;;;;;;;1.60;0.88;;;13.20;99.90;;;;;;5027992;28;20017;-81
2022/08/30 01:52:25;;;;;;;0.73;0.73;;;13.20;99.90;;;;;;5028081;28;20036;-81
2022/08/30 01:54:50;;;;;;;1.45;0.70;;;13.10;99.90;;;;;;5031023;28;20029;-81
2022/08/30 01:57:20;;;;;;;0.60;0.60;;;13.10;99.90;;;;;;5028272;28;20051;-81
2022/08/30 01:59:48;;;;;;;0.75;0.60;;;13.10;99.90;;;;;;5027568;28;20025;-81
2022/08/30 02:02:17;;;;;;;0.73;0.70;;;13.00;99.90;;;;;;5029369;28;20079;-81
2022/08/30 02:04:43;;;;;;;0.52;0.52;;;13.00;99.90;;;;;;5028959;28;20021;-80
2022/08/30 02:07:08;;;;;;;1.10;0.80;;;13.00;99.90;;;;;;5027129;28;20043;-81
2022/08/30 02:09:34;;;;;;;0.80;0.80;;;12.90;99.90;;;;;;5032773;28;20053;-81
2022/08/30 02:12:00;;;;;;;0.50;0.50;;;12.90;99.90;;;;;;5028088;28;20026;-81
2022/08/30 02:14:26;;;;;;;0.85;0.75;;;12.80;99.90;;;;;;5025910;28;20029;-81
2022/08/30 02:16:51;;;;;;;0.75;0.60;;;12.80;99.90;;;;;;5026361;28;20124;-81
2022/08/30 02:19:17;;;;;;;2.47;1.17;;;12.80;99.90;;;;;;5026310;28;20571;-81
2022/08/30 02:21:42;;;;;;;0.90;0.65;;;12.80;99.90;;;;;;5028523;28;20083;-80
2022/08/30 02:24:08;;;;;;;1.42;0.77;;;12.80;99.90;;;;;;5028160;28;20014;-80
2022/08/30 02:26:35;;;;;;;1.02;0.57;;;12.70;99.90;;;;;;5033392;28;20395;-80
2022/08/30 02:29:01;;;;;;;0.80;0.80;;;12.70;99.90;;;;;;5029270;28;20021;-80
2022/08/30 02:31:26;;;;;;;0.75;0.75;;;12.80;99.90;;;;;;5026546;28;20041;-80
2022/08/30 02:33:52;;;;;;;0.90;0.80;;;12.80;99.90;;;;;;5028295;28;20083;-80
2022/08/30 02:36:19;;;;;;;0.68;0.65;;;12.70;99.90;;;;;;5022540;28;20120;-80
2022/08/30 02:38:45;;;;;;;1.02;0.82;;;12.70;99.90;;;;;;5027003;28;20064;-81
2022/08/30 02:41:11;;;;;;;1.15;0.80;;;12.60;99.90;;;;;;5024916;28;20057;-80
2022/08/30 02:43:37;;;;;;;1.02;0.88;;;12.60;99.90;;;;;;5032352;28;20531;-81
2022/08/30 02:46:04;;;;;;;0.82;0.70;;;12.60;99.90;;;;;;5025232;28;20108;-80
2022/08/30 02:48:29;;;;;;;1.92;0.77;;;12.60;99.90;;;;;;5024822;28;20056;-81
2022/08/30 02:50:55;;;;;;;0.70;0.70;;;12.50;99.90;;;;;;5026035;28;20029;-81
2022/08/30 02:53:21;;;;;;;0.85;0.85;;;12.60;99.90;;;;;;5025767;28;20515;-81
2022/08/30 02:55:48;;;;;;;0.70;0.70;;;12.50;99.90;;;;;;5028590;28;20033;-80
2022/08/30 02:58:13;;;;;;;0.82;0.80;;;12.50;99.90;;;;;;5022886;28;20022;-80
2022/08/30 03:00:40;;;;;;;1.00;0.82;;;12.40;99.90;;;;;;5025405;28;20048;-80
2022/08/30 03:03:06;;;;;;;0.85;0.70;;;12.40;99.90;;;;;;5027925;28;20013;-80
2022/08/30 03:05:32;;;;;;;0.68;0.68;;;12.50;99.90;;;;;;5027445;28;20480;-80
2022/08/30 03:07:59;;;;;;;0.60;0.60;;;12.40;99.90;;;;;;5025519;28;20049;-80
2022/08/30 03:10:26;;;;;;;1.08;0.90;;;12.40;99.90;;;;;;5023710;28;20017;-80
2022/08/30 03:12:52;;;;;;;2.15;1.00;;;12.30;99.90;;;;;;5024439;28;20030;-81
2022/08/30 03:15:18;;;;;;;0.85;0.85;;;12.30;99.90;;;;;;5026460;28;20033;-81
2022/08/30 03:17:43;;;;;;;0.70;0.70;;;12.30;99.90;;;;;;5025951;28;20026;-82
2022/08/30 03:20:10;;;;;;;2.00;1.10;;;12.30;99.90;;;;;;5030785;28;20476;-80
2022/08/30 03:22:36;;;;;;;1.30;0.90;;;12.30;99.90;;;;;;5024696;28;20037;-81
2022/08/30 03:25:03;;;;;;;3.42;1.10;;;12.30;99.90;;;;;;5028248;28;20036;-81
2022/08/30 03:27:29;;;;;;;1.88;1.10;;;12.30;99.90;;;;;;5026738;28;20029;-81
2022/08/30 03:29:55;;;;;;;1.20;0.90;;;12.30;99.90;;;;;;5027909;28;20073;-81
2022/08/30 03:32:21;;;;;;;1.23;0.90;;;12.20;99.90;;;;;;5022618;28;20123;-81
2022/08/30 03:34:46;;;;;;;1.50;0.70;;;12.20;99.90;;;;;;5027261;28;20251;-81
2022/08/30 03:37:12;;;;;;;1.10;0.73;;;12.20;99.90;;;;;;5026295;28;20120;-82
2022/08/30 03:39:38;;;;;;;2.33;1.10;;;12.20;99.90;;;;;;5025090;28;20037;-81
2022/08/30 03:42:03;;;;;;;1.15;1.05;;;12.20;99.90;;;;;;5025666;28;20464;-80
2022/08/30 03:44:29;;;;;;;0.98;0.88;;;12.20;99.90;;;;;;5026000;28;20044;-81
2022/08/30 03:46:55;;;;;;;1.02;0.90;;;12.30;99.90;;;;;;5027137;28;20037;-81
2022/08/30 03:49:20;;;;;;;1.33;1.02;;;12.20;99.90;;;;;;5025026;28;20025;-81
2022/08/30 03:51:47;;;;;;;0.80;0.70;;;12.20;99.90;;;;;;5025991;28;20056;-81
2022/08/30 03:54:13;;;;;;;1.42;1.10;;;12.20;99.90;;;;;;5022317;28;20400;-81
2022/08/30 03:56:39;;;;;;;0.75;0.75;;;12.10;99.90;;;;;;5024180;28;20025;-81
2022/08/30 03:59:05;;;;;;;1.00;0.90;;;12.10;99.90;;;;;;5025391;28;20116;-81
2022/08/30 04:01:30;;;;;;;0.95;0.70;;;12.20;99.90;;;;;;5023675;28;20128;-81
2022/08/30 04:03:56;;;;;;;0.70;0.70;;;12.20;99.90;;;;;;5022861;28;20059;-81
2022/08/30 04:06:22;;;;;;;1.48;0.90;;;12.20;99.90;;;;;;5026687;28;20113;-81
2022/08/30 04:08:48;;;;;;;3.00;1.02;;;12.20;99.90;;;;;;5024689;28;20036;-81
2022/08/30 04:11:15;;;;;;;0.93;0.80;;;12.20;99.90;;;;;;5027010;28;20025;-80
2022/08/30 04:13:41;;;;;;;0.68;0.68;;;12.20;99.90;;;;;;5022918;28;20029;-80
2022/08/30 04:16:07;;;;;;;1.63;1.05;;;12.20;99.90;;;;;;5024993;28;20045;-80
2022/08/30 04:18:33;;;;;;;1.35;1.00;;;12.30;99.90;;;;;;5017598;28;20029;-80
2022/08/30 04:20:59;;;;;;;1.48;0.98;;;12.30;99.90;;;;;;5026761;28;20036;-80
2022/08/30 04:23:24;;;;;;;0.95;0.82;;;12.30;99.90;;;;;;5024205;28;20025;-80
2022/08/30 04:25:50;;;;;;;1.15;1.02;;;12.30;99.90;;;;;;5024927;28;20057;-80
2022/08/30 04:28:15;;;;;;;1.02;0.90;;;12.30;99.90;;;;;;5025439;28;20079;-81
2022/08/30 04:30:42;;;;;;;1.25;0.77;;;12.30;99.90;;;;;;5022738;28;20132;-81
2022/08/30 04:33:09;;;;;;;1.33;0.80;;;12.30;99.90;;;;;;5023217;28;20033;-80
2022/08/30 04:35:35;;;;;;;1.25;1.08;;;12.40;99.90;;;;;;5020128;28;20559;-80
2022/08/30 04:38:01;;;;;;;1.25;1.13;;;12.50;99.90;;;;;;5027557;28;20472;-80
2022/08/30 04:40:27;;;;;;;1.10;1.00;;;12.50;99.90;;;;;;5020212;28;20043;-80
2022/08/30 04:42:52;;;;;;;2.03;1.40;;;12.50;99.90;;;;;;5024393;28;20025;-80
2022/08/30 04:45:18;;;;;;;1.10;1.00;;;12.60;99.90;;;;;;5024997;28;20060;-80
2022/08/30 04:47:44;;;;;;;1.00;0.82;;;12.60;99.90;;;;;;5025770;28;20527;-80
2022/08/30 04:50:12;;;;;;;1.70;1.10;;;12.60;99.90;;;;;;5021619;28;20104;-80
2022/08/30 04:52:38;;;;;;;1.27;0.93;;;12.80;99.90;;;;;;5023823;28;20526;-80
2022/08/30 04:55:04;;;;;;;1.35;1.10;;;12.90;99.90;;;;;;5025175;28;20651;-80
2022/08/30 04:57:30;;;;;;;0.80;0.80;;;13.10;99.90;;;;;;5023498;28;20033;-80
2022/08/30 04:59:56;;;;;;;1.05;0.80;;;13.30;99.90;;;;;;5023206;28;20504;-80
2022/08/30 05:02:22;;;;;;;1.63;1.23;;;13.40;99.90;;;;;;5021907;28;20036;-80
2022/08/30 05:07:32;;;;;;;1.75;1.20;;;13.70;99.90;;;;;;5022478;28;20048;-80
2022/08/30 05:09:58;;;;;;;1.52;1.02;;;13.90;99.90;;;;;;5028440;28;20036;-81
2022/08/30 05:12:24;;;;;;;1.33;1.10;;;13.90;99.90;;;;;;5026645;28;20068;-80
2022/08/30 05:14:50;;;;;;;2.75;1.20;;;14.10;99.90;;;;;;5028755;28;20079;-81
2022/08/30 05:17:15;;;;;;;1.42;1.30;;;14.20;99.90;;;;;;5029300;28;20030;-83
2022/08/30 05:19:41;;;;;;;1.70;1.20;;;14.40;99.90;;;;;;5027330;28;20025;-78
2022/08/30 05:22:06;;;;;;;1.88;1.45;;;14.40;99.90;;;;;;5029101;28;20642;-80
2022/08/30 05:24:33;;;;;;;1.75;1.40;;;14.50;99.90;;;;;;5028245;28;20033;-81
2022/08/30 05:26:58;;;;;;;1.30;1.20;;;14.60;99.90;;;;;;5027024;28;20032;-79
2022/08/30 05:29:24;;;;;;;1.75;1.42;;;14.70;99.90;;;;;;5007292;28;20435;-79
2022/08/30 05:31:53;;;;;;;1.40;1.20;;;14.80;99.90;;;;;;5026506;28;20073;-79
2022/08/30 05:34:19;;;;;;;1.63;1.30;;;15.00;99.90;;;;;;5030780;28;20037;-79
2022/08/30 05:36:44;;;;;;;1.33;1.20;;;14.90;99.90;;;;;;5026669;28;20029;-77
2022/08/30 05:39:10;;;;;;;1.65;1.33;;;14.90;99.90;;;;;;5027763;28;20033;-84
2022/08/30 05:41:36;;;;;;;1.85;1.38;;;15.10;99.90;;;;;;5029732;28;20029;-83
2022/08/30 05:44:04;;;;;;;1.80;1.23;;;15.30;99.90;;;;;;5030721;28;20030;-86
2022/08/30 05:46:32;;;;;;;2.05;1.23;;;15.40;99.90;;;;;;5030796;28;20629;-83
2022/08/30 05:49:00;;;;;;;2.05;1.35;;;15.40;99.90;;;;;;5035770;28;20109;-86
2022/08/30 05:51:29;;;;;;;2.17;1.58;;;15.60;99.90;;;;;;5044065;28;20038;-81
2022/08/30 05:53:57;;;;;;;3.08;1.75;;;15.60;99.90;;;;;;5021498;28;20390;-85
2022/08/30 05:56:30;;;;;;;1.45;1.20;;;15.70;99.90;;;;;;5024682;28;20037;-84
2022/08/30 05:58:55;;;;;;;2.15;1.40;;;16.00;99.90;;;;;;5024763;28;20037;-84
2022/08/30 06:01:26;;;;;;;1.80;1.63;;;16.10;99.90;;;;;;5020321;28;20036;-85
2022/08/30 06:03:53;;;;;;;3.25;1.75;;;16.20;99.90;;;;;;5028447;28;20033;-84
2022/08/30 06:06:19;;;;;;;2.30;1.80;;;16.30;99.90;;;;;;5026346;28;20021;-84
2022/08/30 06:08:47;;;;;;;2.72;1.77;;;16.40;99.90;;;;;;5027610;28;20026;-83
2022/08/30 06:11:15;;;;;;;2.05;1.67;;;16.30;99.90;;;;;;5025852;28;20507;-80
2022/08/30 06:13:41;;;;;;;1.58;1.23;;;16.40;99.90;;;;;;5020660;28;20066;-75
2022/08/30 06:16:14;;;;;;;1.88;1.60;;;16.60;99.90;;;;;;5028255;28;20030;-75
2022/08/30 06:18:39;;;;;;;3.03;1.80;;;16.60;99.90;;;;;;5026451;28;20400;-75
2022/08/30 06:21:05;;;;;;;3.33;1.88;;;16.60;99.90;;;;;;5029856;28;20022;-75
2022/08/30 06:23:31;;;;;;;1.95;1.63;;;16.80;99.90;;;;;;5028440;28;20126;-75
2022/08/30 06:26:03;;;;;;;2.70;1.75;;;16.90;99.90;;;;;;5028557;28;20503;-75
2022/08/30 06:28:28;;;;;;;2.97;1.77;;;17.00;99.90;;;;;;5028049;28;20104;-76
2022/08/30 06:30:54;;;;;;;2.88;1.85;;;17.00;99.90;;;;;;5030506;28;20918;-77
2022/08/30 06:33:19;;;;;;;3.65;1.90;;;17.10;99.90;;;;;;5027061;28;20036;-75
2022/08/30 06:35:45;;;;;;;2.58;1.67;;;17.20;99.90;;;;;;5027653;28;20033;-75
2022/08/30 06:38:10;;;;;;;2.17;1.80;;;17.20;99.90;;;;;;5036617;28;20045;-75
2022/08/30 06:40:35;;;;;;;3.80;2.53;;;17.40;99.90;;;;;;5028723;28;20057;-75
2022/08/30 06:43:01;;;;;;;4.13;2.65;;;17.40;99.90;;;;;;5026501;28;20025;-76
2022/08/30 06:45:26;;;;;;;3.97;1.95;;;17.50;99.90;;;;;;5027465;28;20032;-75
2022/08/30 06:47:52;;;;;;;2.58;2.00;;;17.60;99.90;;;;;;5026814;28;20476;-75
2022/08/30 06:50:18;;;;;;;3.33;2.15;;;17.70;99.90;;;;;;5026805;28;20075;-76
2022/08/30 06:52:44;;;;;;;3.05;2.03;;;17.80;99.90;;;;;;5029756;28;20075;-76
2022/08/30 06:55:11;;;;;;;5.18;2.20;;;17.80;99.90;;;;;;5028520;28;20769;-77
2022/08/30 06:57:37;;;;;;;5.13;2.65;;;17.70;99.90;;;;;;5029927;28;20018;-78
2022/08/30 07:00:05;;;;;;;3.15;2.30;;;17.80;99.90;;;;;;5027011;28;20025;-81
2022/08/30 07:02:32;;;;;;;3.58;2.13;;;17.80;99.90;;;;;;5024259;28;20025;-77
2022/08/30 07:04:58;;;;;;;2.45;1.85;;;17.80;99.90;;;;;;5021285;28;20092;-77
2022/08/30 07:07:23;;;;;;;3.97;2.28;;;17.90;99.90;;;;;;5028167;28;20065;-77
2022/08/30 07:09:49;;;;;;;6.25;3.00;;;18.00;99.90;;;;;;5027978;28;20030;-77
2022/08/30 07:12:15;;;;;;;3.45;2.22;;;18.30;99.90;;;;;;5022931;28;20910;-76
2022/08/30 07:14:41;;;;;;;4.20;2.40;;;18.20;99.90;;;;;;5023590;28;20065;-76
2022/08/30 07:19:53;;;;;;;5.80;2.60;;;18.60;99.90;;;;;;5028944;28;20087;-77
2022/08/30 07:22:18;;;;;;;6.18;3.03;;;18.70;99.90;;;;;;5026361;28;20029;-77
2022/08/30 07:24:44;;;;;;;4.53;2.40;;;18.90;99.90;;;;;;5026561;28;20071;-77
2022/08/30 07:27:10;;;;;;;4.03;2.67;;;19.00;99.90;;;;;;5028160;28;20034;-76
2022/08/30 07:29:35;;;;;;;5.32;2.20;;;19.00;99.90;;;;;;5028101;28;20049;-77
2022/08/30 07:32:01;;;;;;;3.90;2.70;;;19.00;99.90;;;;;;5012131;28;20069;-77
2022/08/30 07:34:26;;;;;;;3.08;2.10;;;19.00;99.90;;;;;;5023479;28;20022;-78
2022/08/30 07:36:52;;;;;;;4.28;2.90;;;19.00;99.90;;;;;;5026178;28;20030;-78
2022/08/30 07:39:17;;;;;;;2.78;2.22;;;19.00;99.90;;;;;;5023606;28;20109;-77
2022/08/30 07:41:43;;;;;;;2.60;2.08;;;19.10;99.90;;;;;;5027805;28;20645;-77
2022/08/30 07:44:12;;;;;;;6.22;2.58;;;19.10;99.90;;;;;;5028150;28;20041;-77
2022/08/30 07:46:38;;;;;;;4.13;2.60;;;19.10;99.90;;;;;;5027051;28;20061;-78
2022/08/30 07:49:04;;;;;;;2.85;2.17;;;19.00;99.90;;;;;;5028580;28;20174;-77
2022/08/30 07:51:30;;;;;;;2.63;1.75;;;18.90;99.90;;;;;;5027469;28;20033;-77
2022/08/30 07:53:56;;;;;;;2.42;2.00;;;18.90;99.90;;;;;;5025931;28;20038;-77
2022/08/30 07:56:22;;;;;;;2.03;1.73;;;19.00;99.90;;;;;;5026119;28;20037;-77
2022/08/30 07:58:48;;;;;;;3.67;1.90;;;19.10;99.90;;;;;;5028692;28;20037;-77
2022/08/30 08:01:14;;;;;;;1.85;1.42;;;19.20;99.90;;;;;;5025494;28;20459;-77
2022/08/30 08:03:41;;;;;;;1.92;1.58;;;19.10;99.90;;;;;;5024146;28;20658;-78
2022/08/30 08:06:10;;;;;;;2.13;1.50;;;19.10;99.90;;;;;;5027450;28;20431;-77
2022/08/30 08:08:36;;;;;;;2.33;1.70;;;18.90;99.90;;;;;;5028392;28;20025;-77
2022/08/30 08:11:21;;;;;;;1.58;1.48;;;18.90;99.90;;;;;;5028184;28;20484;-77
2022/08/30 08:13:49;;;;;;;1.25;1.15;;;18.90;99.90;;;;;;5027078;28;20079;-77
2022/08/30 08:16:15;;;;;;;1.70;1.30;;;19.00;99.90;;;;;;5025987;28;20025;-77
2022/08/30 08:18:40;;;;;;;1.98;1.42;;;19.00;99.90;;;;;;5028429;28;20116;-77
2022/08/30 08:21:06;;;;;;;1.55;1.20;;;18.90;99.90;;;;;;5026988;28;20061;-77
2022/08/30 08:23:31;;;;;;;1.30;1.20;;;19.00;99.90;;;;;;5026586;28;20033;-78
2022/08/30 08:25:57;;;;;;;2.47;1.80;;;19.10;99.90;;;;;;5026222;28;20025;-77
2022/08/30 08:28:23;;;;;;;2.65;2.00;;;19.30;99.90;;;;;;5026891;28;20021;-77
2022/08/30 08:30:49;;;;;;;4.00;1.75;;;19.30;99.90;;;;;;5014933;28;20056;-77
2022/08/30 08:33:16;;;;;;;2.28;1.50;;;19.50;99.90;;;;;;5027488;28;20476;-78
2022/08/30 08:35:42;;;;;;;2.20;1.80;;;19.60;99.90;;;;;;5029773;28;20183;-78
2022/08/30 08:38:07;;;;;;;1.98;1.38;;;19.50;99.90;;;;;;5031305;28;20207;-77
2022/08/30 08:40:54;;;;;;;1.30;1.20;;;19.40;99.90;;;;;;5025025;28;20033;-76
2022/08/30 08:43:24;;;;;;;0.93;0.93;;;19.20;99.90;;;;;;5021559;28;20029;-77
2022/08/30 08:45:49;;;;;;;1.60;0.87;;;19.00;99.90;;;;;;5031030;28;20072;-77
2022/08/30 08:48:25;;;;;;;1.38;0.95;;;18.70;99.90;;;;;;5025769;28;20068;-79
2022/08/30 08:53:36;;;;;;;1.08;0.98;;;18.60;99.90;;;;;;5025933;28;20072;-76
2022/08/30 08:56:13;;;;;;;0.50;0.50;;;18.70;99.90;;;;;;5027604;28;20033;-78
2022/08/30 08:58:51;;;;;;;1.10;1.00;;;18.90;99.90;;;;;;5023163;28;20033;-77
2022/08/30 09:01:20;;;;;;;0.50;0.50;;;19.10;99.90;;;;;;5024884;28;20029;-79
2022/08/30 09:03:47;;;;;;;0.40;0.40;;;19.10;99.90;;;;;;5024020;28;20103;-78
2022/08/30 09:06:27;;;;;;;3.10;0.90;;;19.10;99.90;;;;;;5024524;28;20084;-78
2022/08/30 09:08:53;;;;;;;1.13;0.70;;;19.40;99.90;;;;;;5023820;28;20030;-78
2022/08/30 09:11:27;;;;;;;0.85;0.63;;;19.50;99.90;;;;;;5025879;28;20060;-78
2022/08/30 09:13:53;;;;;;;0.70;0.70;;;19.60;99.90;;;;;;5026196;28;20026;-78
2022/08/30 09:16:45;;;;;;;1.17;0.90;;;19.80;99.90;;;;;;5022049;28;20083;-78
2022/08/30 09:19:25;;;;;;;0.35;0.35;;;20.00;99.90;;;;;;5026452;28;20068;-78
2022/08/30 09:21:57;;;;;;;0.50;0.50;;;20.10;99.90;;;;;;5026724;28;20488;-78
2022/08/30 09:24:22;;;;;;;0.60;0.60;;;20.40;99.90;;;;;;5026719;28;20117;-78
2022/08/30 09:26:48;;;;;;;0.47;0.40;;;20.40;99.90;;;;;;5025723;28;20116;-78
2022/08/30 09:29:18;;;;;;;1.02;0.57;;;20.50;99.90;;;;;;5025584;28;20017;-79
2022/08/30 09:31:51;;;;;;;0.40;0.40;;;20.80;99.90;;;;;;5026632;28;20056;-79
2022/08/30 09:34:20;;;;;;;1.30;0.60;;;21.10;99.90;;;;;;5027145;28;20040;-81
2022/08/30 09:36:50;;;;;;;0.45;0.45;;;21.00;99.90;;;;;;5025544;28;20061;-78
2022/08/30 09:39:32;;;;;;;0.40;0.40;;;21.10;99.90;;;;;;5016456;28;20025;-78
2022/08/30 09:42:20;;;;;;;0.70;0.50;;;21.30;99.90;;;;;;5025319;28;20140;-78
2022/08/30 09:44:45;;;;;;;0.40;0.40;;;21.30;99.90;;;;;;5026908;28;20112;-78
2022/08/30 09:47:20;;;;;;;0.32;0.32;;;21.40;99.90;;;;;;5008343;28;20108;-78
2022/08/30 09:49:46;;;;;;;0.82;0.73;;;21.30;99.90;;;;;;5023310;28;20488;-79
2022/08/30 09:52:44;;;;;;;0.38;0.38;;;21.30;99.90;;;;;;5022094;28;20030;-81
2022/08/30 09:55:31;;;;;;;0.47;0.38;;;21.20;99.90;;;;;;5024143;28;20025;-80
2022/08/30 09:58:20;;;;;;;0.52;0.52;;;21.40;99.90;;;;;;5024843;28;20041;-80
2022/08/30 10:01:07;;;;;;;0.55;0.50;;;21.70;99.90;;;;;;5024045;28;20236;-81
2022/08/30 10:04:00;;;;;;;0.52;0.50;;;21.80;99.90;;;;;;5031131;28;20026;-82
2022/08/30 10:06:48;;;;;;;0.60;0.50;;;22.10;99.90;;;;;;5030884;28;20092;-82
2022/08/30 10:09:31;;;;;;;0.75;0.63;;;22.50;99.90;;;;;;5028075;28;20032;-82
2022/08/30 10:12:25;;;;;;;0.40;0.40;;;22.50;99.90;;;;;;5030257;28;20560;-82
2022/08/30 10:15:13;;;;;;;1.33;0.50;;;22.90;99.90;;;;;;5039779;28;20523;-84
2022/08/30 10:18:03;;;;;;;0.50;0.32;;;23.00;99.90;;;;;;5030198;28;20044;-82
2022/08/30 10:20:44;;;;;;;0.20;0.20;;;22.90;99.90;;;;;;5024771;28;20037;-80
2022/08/30 10:23:34;;;;;;;0.15;0.15;;;22.90;99.90;;;;;;5035253;28;20484;-81
2022/08/30 10:26:06;;;;;;;0.40;0.40;;;22.70;99.90;;;;;;5030413;28;20037;-80
2022/08/30 10:28:46;;;;;;;;;;;22.50;99.90;;;;;;5029821;28;20385;-83
2022/08/30 10:31:27;;;;;;;0.20;0.20;;;22.30;99.90;;;;;;5027865;28;19917;-82
2022/08/30 10:33:59;;;;;;;0.28;0.28;;;22.00;99.90;;;;;;5029574;28;20061;-82
2022/08/30 10:36:37;;;;;;;0.17;0.17;;;22.10;99.90;;;;;;5030591;28;20026;-83
2022/08/30 10:39:04;;;;;;;0.28;0.28;;;21.90;99.90;;;;;;5029829;28;20032;-83
2022/08/30 10:41:41;;;;;;;0.40;0.40;;;22.00;99.90;;;;;;5029302;28;20026;-83
2022/08/30 10:44:12;;;;;;;0.40;0.40;;;22.10;99.90;;;;;;5029485;28;20056;-82
2022/08/30 10:47:09;;;;;;;0.40;0.40;;;22.10;99.90;;;;;;5029841;28;20084;-83
2022/08/30 10:49:39;;;;;;;0.68;0.60;;;22.10;99.90;;;;;;5029619;28;20032;-83
2022/08/30 10:52:22;;;;;;;0.30;0.30;;;22.30;99.90;;;;;;5022209;28;20883;-83
2022/08/30 10:54:57;;;;;;;0.80;0.60;;;22.40;99.90;;;;;;5027535;28;20068;-83
2022/08/30 10:57:23;;;;;;;0.68;0.68;;;22.60;99.90;;;;;;5030335;28;20132;-83
2022/08/30 11:00:01;;;;;;;0.30;0.30;;;22.60;99.90;;;;;;5027246;28;20551;-82
2022/08/30 11:02:45;;;;;;;0.63;0.57;;;22.80;99.90;;;;;;5030351;28;20061;-82
2022/08/30 11:05:44;;;;;;;0.60;0.40;;;23.00;99.90;;;;;;5028143;28;20029;-83
2022/08/30 11:08:40;;;;;;;0.63;0.40;;;22.80;99.90;;;;;;5028629;28;20022;-83
2022/08/30 11:11:20;;;;;;;0.70;0.60;;;22.80;99.90;;;;;;5028847;28;20568;-82
2022/08/30 11:13:47;;;;;;;0.28;0.28;;;23.00;99.90;;;;;;5029050;28;20025;-82
2022/08/30 11:16:15;;;;;;;0.38;0.38;;;23.10;99.30;;;;;;5026243;28;20026;-82
2022/08/30 11:18:56;;;;;;;0.40;0.40;;;23.50;98.10;;;;;;5029147;28;20041;-82
2022/08/30 11:21:37;;;;;;;0.40;0.40;;;23.70;97.40;;;;;;5028875;28;20029;-81
2022/08/30 11:24:02;;;;;;;;;;;23.80;97.10;;;;;;5029473;28;20022;-83
2022/08/30 11:26:49;;;;;;;0.30;0.30;;;23.60;95.50;;;;;;5028091;28;19955;-83
2022/08/30 11:29:40;;;;;;;0.30;0.30;;;23.30;96.40;;;;;;5027668;28;20539;-83
2022/08/30 11:32:12;;;;;;;0.30;0.30;;;23.70;95.60;;;;;;5027671;28;20516;-82
2022/08/30 11:34:44;;;;;;;0.50;0.50;;;23.60;94.80;;;;;;5027061;28;20088;-83
2022/08/30 11:37:28;;;;;;;0.40;0.40;;;23.70;96.90;;;;;;5028825;28;20091;-82
2022/08/30 11:39:58;;;;;;;0.40;0.40;;;23.80;97.00;;;;;;5028186;28;20124;-82
2022/08/30 11:42:29;;;;;;;0.55;0.50;;;23.80;95.60;;;;;;5028442;28;20025;-83
2022/08/30 11:45:22;;;;;;;0.63;0.45;;;24.00;96.90;;;;;;5027189;28;20520;-82
2022/08/30 11:47:59;;;;;;;0.40;0.35;;;23.90;93.80;;;;;;5028864;28;20082;-82
2022/08/30 11:50:31;;;;;;;0.52;0.30;;;23.80;95.10;;;;;;5025547;28;20024;-82
2022/08/30 11:53:13;;;;;;;0.60;0.40;;;24.00;95.00;;;;;;5008773;28;20383;-82
2022/08/30 11:55:55;;;;;;;0.50;0.50;;;23.80;94.40;;;;;;5026169;28;20040;-82
2022/08/30 11:58:31;;;;;;;0.43;0.43;;;24.10;94.90;;;;;;5027014;28;20041;-83
2022/08/30 12:01:29;;;;;;;0.25;0.25;;;24.30;93.10;;;;;;5032679;28;20068;-83
2022/08/30 12:04:00;;;;;;;1.27;0.30;;;24.70;93.20;;;;;;5025588;28;20018;-82
2022/08/30 12:06:45;;;;;;;0.20;0.20;;;25.00;89.90;;;;;;5025959;28;20112;-83
2022/08/30 12:09:22;;;;;;;0.40;0.40;;;24.80;89.60;;;;;;5023517;28;20085;-82
2022/08/30 12:12:06;;;;;;;0.43;0.43;;;25.00;86.00;;;;;;5028805;28;20418;-82
2022/08/30 12:14:47;;;;;;;0.40;0.40;;;25.20;88.10;;;;;;5027951;28;20026;-82
2022/08/30 12:20:39;;;;;;;0.47;0.47;;;25.50;86.80;;;;;;5020851;28;20060;-82
2022/08/30 12:23:36;;;;;;;0.50;0.50;;;25.50;85.50;;;;;;5025743;28;20053;-82
2022/08/30 12:26:19;;;;;;;0.30;0.30;;;26.00;85.70;;;;;;5027050;28;20744;-83
2022/08/30 12:28:50;;;;;;;0.63;0.50;;;26.10;80.60;;;;;;5026813;28;20507;-81
2022/08/30 12:31:24;;;;;;;0.60;0.60;;;26.30;79.00;;;;;;5023683;28;20045;-82
2022/08/30 12:33:55;;;;;;;0.63;0.57;;;26.40;80.10;;;;;;5026270;28;20029;-81
2022/08/30 12:36:40;;;;;;;0.52;0.40;;;26.80;79.70;;;;;;5027154;28;20033;-81
2022/08/30 12:39:12;;;;;;;1.27;0.50;;;26.70;77.20;;;;;;5026118;28;20040;-81
2022/08/30 12:41:38;;;;;;;0.65;0.65;;;27.50;75.90;;;;;;5027203;28;20072;-81
2022/08/30 12:44:11;;;;;;;0.55;0.55;;;28.50;71.30;;;;;;5026814;28;20120;-82
2022/08/30 12:46:37;;;;;;;0.95;0.93;;;29.10;68.50;;;;;;5023107;28;20025;-81
2022/08/30 12:49:02;;;;;;;2.05;0.93;;;29.50;67.50;;;;;;5029233;28;20480;-81
2022/08/30 12:51:35;;;;;;;0.95;0.80;;;29.30;63.80;;;;;;5026970;28;20032;-80
2022/08/30 12:54:22;;;;;;;1.00;0.90;;;29.50;66.00;;;;;;5040120;28;20029;-80
2022/08/30 12:56:55;;;;;;;0.93;0.80;;;29.40;64.60;;;;;;5027686;28;20274;-81
2022/08/30 12:59:49;;;;;;;2.13;0.98;;;29.00;65.00;;;;;;5024958;28;20026;-81
2022/08/30 13:02:22;;;;;;;1.50;0.88;;;29.30;64.70;;;;;;5027490;28;20056;-81
2022/08/30 13:04:49;;;;;;;0.88;0.80;;;29.40;63.60;;;;;;5024461;28;20079;-81
2022/08/30 13:07:25;;;;;;;1.38;1.20;;;29.50;63.30;;;;;;5023856;28;20061;-82
2022/08/30 13:10:12;;;;;;;0.82;0.80;;;29.90;62.30;;;;;;5021575;28;20017;-82
2022/08/30 13:12:39;;;;;;;1.10;1.00;;;30.70;60.90;;;;;;5023632;28;20025;-81
2022/08/30 13:15:17;;;;;;;0.73;0.73;;;30.40;59.10;;;;;;5024643;28;20053;-82